sensor_id;sensor_type;location;lat;lon;timestamp;pressure;altitude;pressure_sealevel;temperature;humidity
16100;BME280;8154;50.830;12.082;2023-05-20T00:00:45;100035.06;;;24.16;34.24
16100;BME280;8154;50.830;12.082;2023-05-20T00:03:15;100031.41;;;24.17;34.41
16100;BME280;8154;50.830;12.082;2023-05-20T00:05:41;100028.75;;;24.17;34.19
16100;BME280;8154;50.830;12.082;2023-05-20T00:08:08;100025.88;;;24.19;34.27
16100;BME280;8154;50.830;12.082;2023-05-20T00:10:35;100032.03;;;24.19;34.47
16100;BME280;8154;50.830;12.082;2023-05-20T00:13:01;100025.22;;;24.17;34.48
16100;BME280;8154;50.830;12.082;2023-05-20T00:15:28;100034.28;;;24.16;34.43
16100;BME280;8154;50.830;12.082;2023-05-20T00:17:55;100036.09;;;24.15;34.28
16100;BME280;8154;50.830;12.082;2023-05-20T00:20:21;100034.28;;;24.16;34.30
16100;BME280;8154;50.830;12.082;2023-05-20T00:22:47;100031.59;;;24.16;34.44
16100;BME280;8154;50.830;12.082;2023-05-20T00:25:13;100032.41;;;24.16;34.05
16100;BME280;8154;50.830;12.082;2023-05-20T00:27:43;100034.66;;;24.13;34.34
16100;BME280;8154;50.830;12.082;2023-05-20T00:30:09;100031.97;;;24.13;34.23
16100;BME280;8154;50.830;12.082;2023-05-20T00:32:35;100028.28;;;24.14;34.42
16100;BME280;8154;50.830;12.082;2023-05-20T00:35:02;100021.91;;;24.15;34.38
16100;BME280;8154;50.830;12.082;2023-05-20T00:37:28;100017.59;;;24.14;34.42
16100;BME280;8154;50.830;12.082;2023-05-20T00:39:55;100018.63;;;24.13;34.47
16100;BME280;8154;50.830;12.082;2023-05-20T00:42:22;100023.97;;;24.13;34.27
16100;BME280;8154;50.830;12.082;2023-05-20T00:44:49;100023.31;;;24.11;34.17
16100;BME280;8154;50.830;12.082;2023-05-20T00:47:17;100019.81;;;24.10;34.51
16100;BME280;8154;50.830;12.082;2023-05-20T00:49:44;100018.81;;;24.11;34.36
16100;BME280;8154;50.830;12.082;2023-05-20T00:52:13;100016.13;;;24.11;34.54
16100;BME280;8154;50.830;12.082;2023-05-20T00:54:40;100020.81;;;24.09;34.44
16100;BME280;8154;50.830;12.082;2023-05-20T00:57:07;100015.28;;;24.11;34.40
16100;BME280;8154;50.830;12.082;2023-05-20T00:59:35;100024.34;;;24.10;34.56
16100;BME280;8154;50.830;12.082;2023-05-20T01:02:02;100041.16;;;24.10;34.46
16100;BME280;8154;50.830;12.082;2023-05-20T01:04:31;100034.19;;;24.09;34.27
16100;BME280;8154;50.830;12.082;2023-05-20T01:06:58;100024.34;;;24.10;34.47
16100;BME280;8154;50.830;12.082;2023-05-20T01:09:26;100016.13;;;24.11;34.22
16100;BME280;8154;50.830;12.082;2023-05-20T01:12:15;100014.28;;;24.12;34.29
16100;BME280;8154;50.830;12.082;2023-05-20T01:14:48;100016.94;;;24.12;34.45
16100;BME280;8154;50.830;12.082;2023-05-20T01:17:15;100021.28;;;24.13;34.30
16100;BME280;8154;50.830;12.082;2023-05-20T01:19:46;100013.66;;;24.10;34.17
16100;BME280;8154;50.830;12.082;2023-05-20T01:22:13;100022.66;;;24.09;34.30
16100;BME280;8154;50.830;12.082;2023-05-20T01:24:44;100036.66;;;24.11;34.33
16100;BME280;8154;50.830;12.082;2023-05-20T01:27:11;100034.38;;;24.08;34.54
16100;BME280;8154;50.830;12.082;2023-05-20T01:29:39;100037.22;;;24.06;34.22
16100;BME280;8154;50.830;12.082;2023-05-20T01:32:11;100031.69;;;24.08;34.46
16100;BME280;8154;50.830;12.082;2023-05-20T01:34:38;100028.19;;;24.07;34.24
16100;BME280;8154;50.830;12.082;2023-05-20T01:37:07;100028.00;;;24.09;34.26
16100;BME280;8154;50.830;12.082;2023-05-20T01:39:35;100021.66;;;24.10;34.47
16100;BME280;8154;50.830;12.082;2023-05-20T01:42:03;100018.81;;;24.11;34.41
16100;BME280;8154;50.830;12.082;2023-05-20T01:44:31;100014.47;;;24.10;34.09
16100;BME280;8154;50.830;12.082;2023-05-20T01:46:58;100005.81;;;24.08;34.14
16100;BME280;8154;50.830;12.082;2023-05-20T01:49:26;100013.84;;;24.08;34.23
16100;BME280;8154;50.830;12.082;2023-05-20T01:51:52;100020.19;;;24.07;34.22
16100;BME280;8154;50.830;12.082;2023-05-20T01:54:18;100014.22;;;24.05;34.37
16100;BME280;8154;50.830;12.082;2023-05-20T01:56:45;100018.72;;;24.05;34.26
16100;BME280;8154;50.830;12.082;2023-05-20T01:59:11;100016.88;;;24.05;34.24
16100;BME280;8154;50.830;12.082;2023-05-20T02:01:37;100016.03;;;24.05;34.48
16100;BME280;8154;50.830;12.082;2023-05-20T02:04:04;100011.34;;;24.07;34.50
16100;BME280;8154;50.830;12.082;2023-05-20T02:06:30;100008.69;;;24.07;34.19
16100;BME280;8154;50.830;12.082;2023-05-20T02:08:56;100007.00;;;24.06;34.41
16100;BME280;8154;50.830;12.082;2023-05-20T02:11:22;100013.38;;;24.05;34.37
16100;BME280;8154;50.830;12.082;2023-05-20T04:13:17;100016.41;;;24.02;34.25
16100;BME280;8154;50.830;12.082;2023-05-20T04:15:43;100014.75;;;24.01;34.28
16100;BME280;8154;50.830;12.082;2023-05-20T04:18:10;100014.75;;;24.01;34.39
16100;BME280;8154;50.830;12.082;2023-05-20T04:20:36;100017.59;;;23.99;34.57
16100;BME280;8154;50.830;12.082;2023-05-20T04:23:02;100019.47;;;23.99;34.55
16100;BME280;8154;50.830;12.082;2023-05-20T04:25:28;100026.06;;;24.03;34.50
16100;BME280;8154;50.830;12.082;2023-05-20T04:27:55;100025.41;;;24.01;34.23
16100;BME280;8154;50.830;12.082;2023-05-20T04:30:22;100020.09;;;24.01;34.44
16100;BME280;8154;50.830;12.082;2023-05-20T04:32:49;100020.28;;;23.99;34.37
16100;BME280;8154;50.830;12.082;2023-05-20T04:35:15;100018.81;;;23.97;34.61
16100;BME280;8154;50.830;12.082;2023-05-20T04:37:41;100013.94;;;24.00;34.45
16100;BME280;8154;50.830;12.082;2023-05-20T04:40:09;100015.13;;;23.98;34.44
16100;BME280;8154;50.830;12.082;2023-05-20T04:42:37;100018.81;;;23.97;34.73
16100;BME280;8154;50.830;12.082;2023-05-20T04:45:03;100010.94;;;23.95;34.27
16100;BME280;8154;50.830;12.082;2023-05-20T04:47:33;100017.16;;;23.96;34.65
16100;BME280;8154;50.830;12.082;2023-05-20T04:50:08;100015.13;;;23.98;34.62
16100;BME280;8154;50.830;12.082;2023-05-20T04:52:38;100012.25;;;23.99;34.50
16100;BME280;8154;50.830;12.082;2023-05-20T04:55:08;100015.13;;;23.98;34.67
16100;BME280;8154;50.830;12.082;2023-05-20T04:57:36;100005.75;;;24.02;34.59
16100;BME280;8154;50.830;12.082;2023-05-20T05:00:05;99998.53;;;24.02;34.26
16100;BME280;8154;50.830;12.082;2023-05-20T05:02:33;100001.06;;;24.04;34.56
16100;BME280;8154;50.830;12.082;2023-05-20T05:04:59;100009.06;;;24.04;34.33
16100;BME280;8154;50.830;12.082;2023-05-20T05:07:25;100004.53;;;24.04;34.60
16100;BME280;8154;50.830;12.082;2023-05-20T05:09:52;100011.06;;;24.02;34.36
16100;BME280;8154;50.830;12.082;2023-05-20T05:12:18;100007.38;;;24.03;34.40
16100;BME280;8154;50.830;12.082;2023-05-20T05:14:44;100008.41;;;24.02;34.60
16100;BME280;8154;50.830;12.082;2023-05-20T05:17:10;100008.22;;;24.03;34.40
16100;BME280;8154;50.830;12.082;2023-05-20T05:19:36;100014.22;;;24.05;34.34
16100;BME280;8154;50.830;12.082;2023-05-20T05:22:02;100016.69;;;24.07;34.32
16100;BME280;8154;50.830;12.082;2023-05-20T05:24:28;100006.00;;;24.07;34.33
16100;BME280;8154;50.830;12.082;2023-05-20T05:26:55;100008.88;;;24.05;34.29
16100;BME280;8154;50.830;12.082;2023-05-20T05:29:21;100013.38;;;24.05;34.29
16100;BME280;8154;50.830;12.082;2023-05-20T05:31:47;100016.88;;;24.05;34.24
16100;BME280;8154;50.830;12.082;2023-05-20T05:34:13;100011.53;;;24.05;34.33
16100;BME280;8154;50.830;12.082;2023-05-20T05:36:39;100005.38;;;24.05;34.48
16100;BME280;8154;50.830;12.082;2023-05-20T05:39:05;100009.88;;;24.04;34.22
16100;BME280;8154;50.830;12.082;2023-05-20T05:41:31;99998.38;;;24.04;34.31
16100;BME280;8154;50.830;12.082;2023-05-20T05:43:58;99998.38;;;24.04;34.23
16100;BME280;8154;50.830;12.082;2023-05-20T05:46:24;99996.31;;;24.06;34.26
16100;BME280;8154;50.830;12.082;2023-05-20T05:48:50;99989.34;;;24.05;34.32
16100;BME280;8154;50.830;12.082;2023-05-20T05:51:16;99995.72;;;24.04;34.28
16100;BME280;8154;50.830;12.082;2023-05-20T05:53:43;99998.38;;;24.04;34.19
16100;BME280;8154;50.830;12.082;2023-05-20T05:56:09;99998.38;;;24.04;34.35
16100;BME280;8154;50.830;12.082;2023-05-20T05:58:36;99991.91;;;23.98;34.44
16100;BME280;8154;50.830;12.082;2023-05-20T06:01:02;99990.47;;;23.96;34.70
16100;BME280;8154;50.830;12.082;2023-05-20T06:03:29;99992.09;;;23.97;34.50
16100;BME280;8154;50.830;12.082;2023-05-20T06:05:55;99990.09;;;23.99;34.78
16100;BME280;8154;50.830;12.082;2023-05-20T06:08:21;99994.78;;;23.97;34.78
16100;BME280;8154;50.830;12.082;2023-05-20T06:10:49;99986.59;;;23.98;34.58
16100;BME280;8154;50.830;12.082;2023-05-20T06:13:15;99990.09;;;23.99;34.86
16100;BME280;8154;50.830;12.082;2023-05-20T06:15:41;99989.53;;;24.03;34.60
16100;BME280;8154;50.830;12.082;2023-05-20T06:18:10;99994.03;;;24.03;34.84
16100;BME280;8154;50.830;12.082;2023-05-20T06:20:37;99989.53;;;24.03;34.71
16100;BME280;8154;50.830;12.082;2023-05-20T06:23:05;99994.03;;;24.03;34.56
16100;BME280;8154;50.830;12.082;2023-05-20T06:25:31;99993.38;;;24.01;34.67
16100;BME280;8154;50.830;12.082;2023-05-20T06:27:57;99998.38;;;24.04;34.58
16100;BME280;8154;50.830;12.082;2023-05-20T06:30:23;100001.19;;;24.02;34.41
16100;BME280;8154;50.830;12.082;2023-05-20T06:32:50;99996.69;;;24.03;34.58
16100;BME280;8154;50.830;12.082;2023-05-20T06:35:17;99997.34;;;24.05;34.47
16100;BME280;8154;50.830;12.082;2023-05-20T06:37:44;99994.88;;;24.03;34.71
16100;BME280;8154;50.830;12.082;2023-05-20T06:40:11;99996.69;;;24.03;34.55
16100;BME280;8154;50.830;12.082;2023-05-20T06:42:37;100001.19;;;24.02;34.80
16100;BME280;8154;50.830;12.082;2023-05-20T06:45:04;99989.72;;;24.02;34.70
16100;BME280;8154;50.830;12.082;2023-05-20T06:47:30;99996.88;;;24.01;34.57
16100;BME280;8154;50.830;12.082;2023-05-20T06:49:56;99994.22;;;24.01;34.43
16100;BME280;8154;50.830;12.082;2023-05-20T06:52:22;99984.38;;;24.02;34.72
16100;BME280;8154;50.830;12.082;2023-05-20T06:54:49;99995.06;;;24.02;34.66
16100;BME280;8154;50.830;12.082;2023-05-20T06:57:15;99987.41;;;23.99;34.78
16100;BME280;8154;50.830;12.082;2023-05-20T06:59:41;99983.53;;;24.01;34.61
16100;BME280;8154;50.830;12.082;2023-05-20T07:02:07;99991.34;;;24.03;34.71
16100;BME280;8154;50.830;12.082;2023-05-20T07:04:33;99982.34;;;24.04;34.72
16100;BME280;8154;50.830;12.082;2023-05-20T07:07:00;99985.03;;;24.04;34.66
16100;BME280;8154;50.830;12.082;2023-05-20T07:09:26;99985.84;;;24.04;34.53
16100;BME280;8154;50.830;12.082;2023-05-20T07:11:54;99970.66;;;24.05;34.50
16100;BME280;8154;50.830;12.082;2023-05-20T07:14:22;99969.63;;;24.06;34.47
16100;BME280;8154;50.830;12.082;2023-05-20T07:16:48;99970.47;;;24.06;34.55
16100;BME280;8154;50.830;12.082;2023-05-20T07:19:14;99961.63;;;24.06;34.76
16100;BME280;8154;50.830;12.082;2023-05-20T07:21:40;99959.97;;;24.05;34.77
16100;BME280;8154;50.830;12.082;2023-05-20T07:24:06;99948.25;;;24.06;34.55
16100;BME280;8154;50.830;12.082;2023-05-20T07:26:32;99948.63;;;24.03;34.64
16100;BME280;8154;50.830;12.082;2023-05-20T07:29:04;99941.47;;;24.03;34.72
16100;BME280;8154;50.830;12.082;2023-05-20T07:31:31;99942.13;;;24.05;34.86
16100;BME280;8154;50.830;12.082;2023-05-20T07:33:58;99945.97;;;24.03;34.71
16100;BME280;8154;50.830;12.082;2023-05-20T07:36:26;99944.13;;;24.03;34.57
16100;BME280;8154;50.830;12.082;2023-05-20T07:38:53;99941.66;;;24.02;34.83
16100;BME280;8154;50.830;12.082;2023-05-20T07:41:24;99932.44;;;24.04;34.70
16100;BME280;8154;50.830;12.082;2023-05-20T07:43:53;99928.13;;;24.03;34.40
16100;BME280;8154;50.830;12.082;2023-05-20T07:46:19;99936.13;;;24.03;34.69
16100;BME280;8154;50.830;12.082;2023-05-20T07:48:45;99940.44;;;24.04;34.63
16100;BME280;8154;50.830;12.082;2023-05-20T07:51:11;99937.78;;;24.04;34.62
16100;BME280;8154;50.830;12.082;2023-05-20T07:53:38;99939.63;;;24.04;34.76
16100;BME280;8154;50.830;12.082;2023-05-20T07:56:04;99927.28;;;24.03;34.56
16100;BME280;8154;50.830;12.082;2023-05-20T07:58:31;99929.75;;;24.04;34.64
16100;BME280;8154;50.830;12.082;2023-05-20T08:00:57;99923.59;;;24.04;34.57
16100;BME280;8154;50.830;12.082;2023-05-20T08:03:23;99918.28;;;24.04;34.81
16100;BME280;8154;50.830;12.082;2023-05-20T08:05:50;99912.94;;;24.04;34.59
16100;BME280;8154;50.830;12.082;2023-05-20T08:08:16;99918.28;;;24.04;34.72
16100;BME280;8154;50.830;12.082;2023-05-20T08:10:42;99911.91;;;24.05;34.40
16100;BME280;8154;50.830;12.082;2023-05-20T08:13:08;99917.91;;;24.07;34.76
16100;BME280;8154;50.830;12.082;2023-05-20T08:15:35;99915.41;;;24.05;34.84
16100;BME280;8154;50.830;12.082;2023-05-20T08:18:01;99909.22;;;24.05;34.66
16100;BME280;8154;50.830;12.082;2023-05-20T08:20:28;99906.56;;;24.05;34.74
16100;BME280;8154;50.830;12.082;2023-05-20T08:22:54;99903.88;;;24.05;34.94
16100;BME280;8154;50.830;12.082;2023-05-20T08:25:20;99909.41;;;24.03;34.91
16100;BME280;8154;50.830;12.082;2023-05-20T08:27:48;99908.41;;;24.04;34.65
16100;BME280;8154;50.830;12.082;2023-05-20T08:30:14;99889.50;;;24.06;34.98
16100;BME280;8154;50.830;12.082;2023-05-20T08:32:40;99895.69;;;24.06;34.79
16100;BME280;8154;50.830;12.082;2023-05-20T08:35:06;99896.53;;;24.07;34.62
16100;BME280;8154;50.830;12.082;2023-05-20T08:37:32;99899.00;;;24.08;34.92
16100;BME280;8154;50.830;12.082;2023-05-20T08:39:58;99906.25;;;24.14;34.79
16100;BME280;8154;50.830;12.082;2023-05-20T08:42:25;99897.03;;;24.17;34.91
16100;BME280;8154;50.830;12.082;2023-05-20T08:44:53;99894.28;;;24.10;34.99
16100;BME280;8154;50.830;12.082;2023-05-20T08:47:19;99896.16;;;24.10;35.21
16100;BME280;8154;50.830;12.082;2023-05-20T08:49:47;99902.47;;;24.09;35.17
16100;BME280;8154;50.830;12.082;2023-05-20T08:52:15;99901.50;;;24.10;34.86
16100;BME280;8154;50.830;12.082;2023-05-20T08:54:44;99892.06;;;24.14;34.88
16100;BME280;8154;50.830;12.082;2023-05-20T08:57:11;99896.38;;;24.15;34.95
16100;BME280;8154;50.830;12.082;2023-05-20T08:59:43;99891.22;;;24.13;34.88
16100;BME280;8154;50.830;12.082;2023-05-20T09:02:10;99888.75;;;24.12;34.83
16100;BME280;8154;50.830;12.082;2023-05-20T09:04:36;99885.91;;;24.13;34.71
16100;BME280;8154;50.830;12.082;2023-05-20T09:07:03;99885.09;;;24.13;35.23
16100;BME280;8154;50.830;12.082;2023-05-20T09:09:32;99885.97;;;24.20;34.87
16100;BME280;8154;50.830;12.082;2023-05-20T09:12:00;99871.25;;;24.24;34.69
16100;BME280;8154;50.830;12.082;2023-05-20T09:14:30;99865.63;;;24.19;35.06
16100;BME280;8154;50.830;12.082;2023-05-20T09:16:56;99866.81;;;24.16;35.12
16100;BME280;8154;50.830;12.082;2023-05-20T09:19:22;99862.50;;;24.15;35.06
16100;BME280;8154;50.830;12.082;2023-05-20T09:21:53;99857.16;;;24.15;34.85
16100;BME280;8154;50.830;12.082;2023-05-20T09:24:22;99859.25;;;24.20;35.14
16100;BME280;8154;50.830;12.082;2023-05-20T09:26:49;99850.28;;;24.27;35.06
16100;BME280;8154;50.830;12.082;2023-05-20T09:29:14;99864.22;;;24.23;34.87
16100;BME280;8154;50.830;12.082;2023-05-20T09:31:41;99860.75;;;24.22;34.87
16100;BME280;8154;50.830;12.082;2023-05-20T09:34:07;99851.25;;;24.20;35.33
16100;BME280;8154;50.830;12.082;2023-05-20T09:36:34;99846.94;;;24.19;35.23
16100;BME280;8154;50.830;12.082;2023-05-20T09:39:02;99854.00;;;24.26;35.13
16100;BME280;8154;50.830;12.082;2023-05-20T09:41:34;99854.44;;;24.30;34.97
16100;BME280;8154;50.830;12.082;2023-05-20T09:44:02;99845.41;;;24.31;35.05
16100;BME280;8154;50.830;12.082;2023-05-20T09:46:33;99842.91;;;24.29;34.94
16100;BME280;8154;50.830;12.082;2023-05-20T09:49:00;99836.81;;;24.36;34.87
16100;BME280;8154;50.830;12.082;2023-05-20T09:51:28;99835.97;;;24.35;35.24
16100;BME280;8154;50.830;12.082;2023-05-20T09:53:54;99844.38;;;24.32;35.21
16100;BME280;8154;50.830;12.082;2023-05-20T09:56:23;99835.09;;;24.28;35.22
16100;BME280;8154;50.830;12.082;2023-05-20T09:58:50;99825.47;;;24.33;35.25
16100;BME280;8154;50.830;12.082;2023-05-20T10:01:25;99825.94;;;24.37;35.10
16100;BME280;8154;50.830;12.082;2023-05-20T10:03:51;99820.97;;;24.34;35.16
16100;BME280;8154;50.830;12.082;2023-05-20T10:17:24;99803.09;;;24.35;35.01
16100;BME280;8154;50.830;12.082;2023-05-20T10:19:57;99799.84;;;24.39;34.99
16100;BME280;8154;50.830;12.082;2023-05-20T10:22:28;99799.84;;;24.39;34.88
16100;BME280;8154;50.830;12.082;2023-05-20T10:24:59;99798.38;;;24.37;34.92
16100;BME280;8154;50.830;12.082;2023-05-20T10:27:25;99798.38;;;24.37;35.22
16100;BME280;8154;50.830;12.082;2023-05-20T10:29:54;99795.16;;;24.41;35.28
16100;BME280;8154;50.830;12.082;2023-05-20T10:32:28;99791.44;;;24.42;34.99
16100;BME280;8154;50.830;12.082;2023-05-20T10:35:01;99789.81;;;24.41;34.83
16100;BME280;8154;50.830;12.082;2023-05-20T10:37:31;99788.78;;;24.42;35.17
16100;BME280;8154;50.830;12.082;2023-05-20T10:40:08;99783.44;;;24.42;34.86
16100;BME280;8154;50.830;12.082;2023-05-20T10:42:36;99782.41;;;24.43;35.14
16100;BME280;8154;50.830;12.082;2023-05-20T10:45:02;99774.41;;;24.43;35.24
16100;BME280;8154;50.830;12.082;2023-05-20T10:47:30;99775.81;;;24.39;35.02
16100;BME280;8154;50.830;12.082;2023-05-20T10:49:56;99777.44;;;24.40;35.24
16100;BME280;8154;50.830;12.082;2023-05-20T10:52:23;99767.16;;;24.37;35.18
16100;BME280;8154;50.830;12.082;2023-05-20T10:54:58;99768.44;;;24.41;35.05
16100;BME280;8154;50.830;12.082;2023-05-20T10:57:28;99764.94;;;24.41;35.10
16100;BME280;8154;50.830;12.082;2023-05-20T10:59:55;99768.44;;;24.41;35.32
16100;BME280;8154;50.830;12.082;2023-05-20T11:02:21;99766.56;;;24.42;34.98
16100;BME280;8154;50.830;12.082;2023-05-20T11:04:57;99770.47;;;24.39;35.19
16100;BME280;8154;50.830;12.082;2023-05-20T11:07:27;99764.94;;;24.41;35.11
16100;BME280;8154;50.830;12.082;2023-05-20T11:09:57;99763.72;;;24.43;35.38
16100;BME280;8154;50.830;12.082;2023-05-20T11:12:24;99767.03;;;24.45;35.07
16100;BME280;8154;50.830;12.082;2023-05-20T11:14:51;99765.19;;;24.46;34.95
16100;BME280;8154;50.830;12.082;2023-05-20T11:17:18;99752.22;;;24.43;34.95
16100;BME280;8154;50.830;12.082;2023-05-20T11:19:47;99759.84;;;24.46;35.26
16100;BME280;8154;50.830;12.082;2023-05-20T11:22:13;99752.44;;;24.48;35.36
16100;BME280;8154;50.830;12.082;2023-05-20T11:24:40;99753.84;;;24.44;35.17
16100;BME280;8154;50.830;12.082;2023-05-20T11:27:07;99741.34;;;24.44;35.03
16100;BME280;8154;50.830;12.082;2023-05-20T11:29:33;99750.78;;;24.47;35.32
16100;BME280;8154;50.830;12.082;2023-05-20T11:32:00;99753.28;;;24.48;35.18
16100;BME280;8154;50.830;12.082;2023-05-20T11:34:35;99751.81;;;24.46;35.13
16100;BME280;8154;50.830;12.082;2023-05-20T11:37:01;99749.75;;;24.48;35.21
16100;BME280;8154;50.830;12.082;2023-05-20T11:39:30;99738.06;;;24.49;35.36
16100;BME280;8154;50.830;12.082;2023-05-20T11:41:57;99732.53;;;24.50;34.90
16100;BME280;8154;50.830;12.082;2023-05-20T11:44:24;99738.25;;;24.47;35.16
16100;BME280;8154;50.830;12.082;2023-05-20T11:46:50;99731.25;;;24.46;35.03
16100;BME280;8154;50.830;12.082;2023-05-20T11:49:16;99725.09;;;24.46;35.22
16100;BME280;8154;50.830;12.082;2023-05-20T11:51:43;99730.44;;;24.46;35.17
16100;BME280;8154;50.830;12.082;2023-05-20T11:54:09;99732.94;;;24.47;34.93
16100;BME280;8154;50.830;12.082;2023-05-20T11:56:37;99732.94;;;24.47;35.04
16100;BME280;8154;50.830;12.082;2023-05-20T11:59:04;99720.56;;;24.46;34.92
16100;BME280;8154;50.830;12.082;2023-05-20T12:01:33;99729.63;;;24.45;35.24
16100;BME280;8154;50.830;12.082;2023-05-20T12:04:08;99723.03;;;24.48;35.32
16100;BME280;8154;50.830;12.082;2023-05-20T12:06:47;99710.31;;;24.50;35.28
16100;BME280;8154;50.830;12.082;2023-05-20T12:09:13;99729.22;;;24.48;35.30
16100;BME280;8154;50.830;12.082;2023-05-20T12:11:40;99725.50;;;24.49;34.85
16100;BME280;8154;50.830;12.082;2023-05-20T12:14:07;99723.69;;;24.50;35.05
16100;BME280;8154;50.830;12.082;2023-05-20T12:16:34;99715.84;;;24.48;35.18
16100;BME280;8154;50.830;12.082;2023-05-20T12:19:00;99712.56;;;24.46;34.88
16100;BME280;8154;50.830;12.082;2023-05-20T12:21:27;99715.41;;;24.45;35.28
16100;BME280;8154;50.830;12.082;2023-05-20T12:23:54;99708.44;;;24.44;34.95
16100;BME280;8154;50.830;12.082;2023-05-20T12:26:24;99705.75;;;24.44;35.01
16100;BME280;8154;50.830;12.082;2023-05-20T12:28:50;99706.59;;;24.44;35.23
16100;BME280;8154;50.830;12.082;2023-05-20T12:31:16;99709.88;;;24.46;35.18
16100;BME280;8154;50.830;12.082;2023-05-20T12:33:42;99700.84;;;24.47;34.95
16100;BME280;8154;50.830;12.082;2023-05-20T12:36:09;99699.81;;;24.48;35.16
16100;BME280;8154;50.830;12.082;2023-05-20T12:38:36;99699.19;;;24.46;35.26
16100;BME280;8154;50.830;12.082;2023-05-20T12:41:02;99696.53;;;24.46;35.35
16100;BME280;8154;50.830;12.082;2023-05-20T12:43:28;99698.38;;;24.46;35.06
16100;BME280;8154;50.830;12.082;2023-05-20T12:45:54;99701.06;;;24.46;35.08
16100;BME280;8154;50.830;12.082;2023-05-20T12:48:21;99687.50;;;24.47;35.11
16100;BME280;8154;50.830;12.082;2023-05-20T12:50:47;99681.53;;;24.45;35.03
16100;BME280;8154;50.830;12.082;2023-05-20T12:53:14;99687.69;;;24.46;35.43
16100;BME280;8154;50.830;12.082;2023-05-20T12:55:40;99686.47;;;24.48;35.32
16100;BME280;8154;50.830;12.082;2023-05-20T12:58:06;99681.13;;;24.48;35.14
16100;BME280;8154;50.830;12.082;2023-05-20T13:00:34;99677.00;;;24.46;35.09
16100;BME280;8154;50.830;12.082;2023-05-20T13:03:00;99673.31;;;24.47;35.01
16100;BME280;8154;50.830;12.082;2023-05-20T13:05:46;99660.59;;;24.49;35.18
16100;BME280;8154;50.830;12.082;2023-05-20T13:08:12;99660.59;;;24.49;34.89
16100;BME280;8154;50.830;12.082;2023-05-20T13:10:39;99674.16;;;24.47;35.17
16100;BME280;8154;50.830;12.082;2023-05-20T13:13:06;99671.47;;;24.47;35.18
16100;BME280;8154;50.830;12.082;2023-05-20T14:16:43;99564.78;;;24.52;35.19
16100;BME280;8154;50.830;12.082;2023-05-20T14:19:09;99553.06;;;24.47;35.33
16100;BME280;8154;50.830;12.082;2023-05-20T14:21:35;99551.25;;;24.47;35.22
16100;BME280;8154;50.830;12.082;2023-05-20T14:24:01;99557.38;;;24.48;35.27
16100;BME280;8154;50.830;12.082;2023-05-20T14:26:27;99558.66;;;24.52;35.05
16100;BME280;8154;50.830;12.082;2023-05-20T14:28:53;99558.66;;;24.52;35.24
16100;BME280;8154;50.830;12.082;2023-05-20T14:31:19;99547.97;;;24.52;35.18
16100;BME280;8154;50.830;12.082;2023-05-20T14:33:45;99554.31;;;24.51;35.12
16100;BME280;8154;50.830;12.082;2023-05-20T14:36:11;99549.16;;;24.49;35.00
16100;BME280;8154;50.830;12.082;2023-05-20T14:38:38;99547.13;;;24.51;34.97
16100;BME280;8154;50.830;12.082;2023-05-20T14:41:04;99554.09;;;24.52;35.16
16100;BME280;8154;50.830;12.082;2023-05-20T14:43:30;99554.94;;;24.53;35.34
16100;BME280;8154;50.830;12.082;2023-05-20T14:45:56;99545.50;;;24.50;35.12
16100;BME280;8154;50.830;12.082;2023-05-20T14:48:23;99540.94;;;24.51;35.04
16100;BME280;8154;50.830;12.082;2023-05-20T14:50:49;99538.09;;;24.52;35.24
16100;BME280;8154;50.830;12.082;2023-05-20T14:53:15;99547.75;;;24.53;35.27
16100;BME280;8154;50.830;12.082;2023-05-20T14:55:41;99535.41;;;24.52;35.09
16100;BME280;8154;50.830;12.082;2023-05-20T14:58:07;99543.41;;;24.52;35.06
16100;BME280;8154;50.830;12.082;2023-05-20T15:00:33;99534.19;;;24.55;35.06
16100;BME280;8154;50.830;12.082;2023-05-20T15:03:00;99537.47;;;24.57;35.23
16100;BME280;8154;50.830;12.082;2023-05-20T15:05:26;99530.91;;;24.53;35.35
16100;BME280;8154;50.830;12.082;2023-05-20T15:07:51;99525.75;;;24.51;35.13
16100;BME280;8154;50.830;12.082;2023-05-20T15:10:17;99525.34;;;24.54;35.29
16100;BME280;8154;50.830;12.082;2023-05-20T15:12:44;99531.31;;;24.56;35.04
16100;BME280;8154;50.830;12.082;2023-05-20T15:15:10;99531.53;;;24.55;35.19
16100;BME280;8154;50.830;12.082;2023-05-20T15:17:36;99534.41;;;24.53;35.02
16100;BME280;8154;50.830;12.082;2023-05-20T15:20:02;99519.81;;;24.56;35.20
16100;BME280;8154;50.830;12.082;2023-05-20T15:22:29;99526.78;;;24.57;35.10
16100;BME280;8154;50.830;12.082;2023-05-20T15:24:55;99525.34;;;24.54;35.25
16100;BME280;8154;50.830;12.082;2023-05-20T15:27:21;99532.72;;;24.52;34.90
16100;BME280;8154;50.830;12.082;2023-05-20T15:29:47;99521.66;;;24.55;35.15
16100;BME280;8154;50.830;12.082;2023-05-20T15:32:14;99513.84;;;24.54;35.37
16100;BME280;8154;50.830;12.082;2023-05-20T15:34:40;99515.50;;;24.55;35.10
16100;BME280;8154;50.830;12.082;2023-05-20T15:37:06;99512.00;;;24.54;35.19
16100;BME280;8154;50.830;12.082;2023-05-20T15:39:35;99509.53;;;24.53;35.09
16100;BME280;8154;50.830;12.082;2023-05-20T15:42:01;99510.97;;;24.55;35.08
16100;BME280;8154;50.830;12.082;2023-05-20T15:44:27;99514.47;;;24.56;35.20
16100;BME280;8154;50.830;12.082;2023-05-20T15:46:54;99512.81;;;24.55;35.21
16100;BME280;8154;50.830;12.082;2023-05-20T15:49:21;99507.47;;;24.55;35.08
16100;BME280;8154;50.830;12.082;2023-05-20T15:51:47;99503.97;;;24.54;35.26
16100;BME280;8154;50.830;12.082;2023-05-20T15:54:13;99497.78;;;24.54;35.25
16100;BME280;8154;50.830;12.082;2023-05-20T15:56:39;99503.34;;;24.52;35.22
16100;BME280;8154;50.830;12.082;2023-05-20T15:59:06;99496.59;;;24.56;35.30
16100;BME280;8154;50.830;12.082;2023-05-20T16:01:32;99483.22;;;24.56;35.12
16100;BME280;8154;50.830;12.082;2023-05-20T16:03:58;99491.44;;;24.55;34.94
16100;BME280;8154;50.830;12.082;2023-05-20T16:06:24;99485.28;;;24.54;35.17
16100;BME280;8154;50.830;12.082;2023-05-20T16:08:50;99477.25;;;24.54;35.35